Time;durP1;ratioP1;P1;durP2;ratioP2;P2;SDS_P1;SDS_P2;PMS_P1;PMS_P2;Temp;Humidity;BMP_temperature;BMP_pressure;BME280_temperature;BME280_humidity;BME280_pressure;Samples;Min_cycle;Max_cycle;Signal;HPM_P1;HPM_P2
2023/03/13 00:01:26;;;;;;;;;;;8.30;99.90;;;;;;4986442;28;19965;-73
2023/03/13 00:03:54;;;;;;;;;;;8.20;99.90;;;;;;4984115;28;20017;-73
2023/03/13 00:06:20;;;;;;;;;;;8.50;99.90;;;;;;4985540;28;19984;-72
2023/03/13 00:08:45;;;;;;;;;;;9.50;99.90;;;;;;4984665;28;19926;-72
2023/03/13 00:11:12;;;;;;;;;;;9.40;99.90;;;;;;4988110;28;20026;-72
2023/03/13 00:13:43;;;;;;;;;;;8.90;99.90;;;;;;4983602;28;20020;-72
2023/03/13 00:16:10;;;;;;;;;;;8.30;99.90;;;;;;4984772;28;20441;-72
2023/03/13 00:18:36;;;;;;;;;;;8.90;99.90;;;;;;4984523;28;19933;-72
2023/03/13 00:21:03;;;;;;;;;;;8.40;99.90;;;;;;4987668;28;20300;-72
2023/03/13 00:23:29;;;;;;;;;;;8.40;99.90;;;;;;4984376;28;19926;-72
2023/03/13 00:25:58;;;;;;;;;;;8.80;99.90;;;;;;4986165;28;20044;-72
2023/03/13 00:28:24;;;;;;;;;;;8.30;99.90;;;;;;4983072;28;19973;-72
2023/03/13 00:30:50;;;;;;;;;;;9.40;99.90;;;;;;4985092;28;19969;-72
2023/03/13 00:33:15;;;;;;;;;;;8.40;99.90;;;;;;4984906;28;19930;-72
2023/03/13 00:35:41;;;;;;;;;;;8.50;99.90;;;;;;4984097;28;19926;-72
2023/03/13 00:38:06;;;;;;;;;;;8.40;99.90;;;;;;4985295;28;19933;-72
2023/03/13 00:40:32;;;;;;;;;;;9.00;99.90;;;;;;4986345;28;19926;-72
2023/03/13 00:42:58;;;;;;;;;;;8.40;99.90;;;;;;4982411;28;20321;-72
2023/03/13 00:45:24;;;;;;;;;;;8.40;99.90;;;;;;4986521;28;20332;-72
2023/03/13 00:47:49;;;;;;;;;;;8.80;99.90;;;;;;4983794;28;19929;-72
2023/03/13 00:50:15;;;;;;;;;;;8.90;99.90;;;;;;4983393;28;19995;-72
2023/03/13 00:52:40;;;;;;;;;;;8.40;99.90;;;;;;4983731;28;20008;-72
2023/03/13 00:55:06;;;;;;;;;;;9.50;99.90;;;;;;4986760;28;19926;-72
2023/03/13 00:57:36;;;;;;;;;;;8.50;99.90;;;;;;4983005;28;19926;-72
2023/03/13 01:00:04;;;;;;;;;;;8.40;99.90;;;;;;4986691;28;20024;-72
2023/03/13 01:02:30;;;;;;;;;;;9.20;99.90;;;;;;4983142;28;19932;-72
2023/03/13 01:04:55;;;;;;;;;;;8.40;99.90;;;;;;4986916;28;19926;-72
2023/03/13 01:07:21;;;;;;;;;;;8.50;99.90;;;;;;4983958;28;20008;-72
2023/03/13 01:09:46;;;;;;;;;;;8.90;99.90;;;;;;4984580;28;20015;-72
2023/03/13 01:12:12;;;;;;;;;;;8.40;99.90;;;;;;4984161;28;19925;-72
2023/03/13 01:14:37;;;;;;;;;;;8.40;99.90;;;;;;4983706;28;20366;-72
2023/03/13 01:17:03;;;;;;;;;;;8.40;99.90;;;;;;4985048;28;19965;-72
2023/03/13 01:19:28;;;;;;;;;;;8.50;99.90;;;;;;4986339;28;19925;-71
2023/03/13 01:21:54;;;;;;;;;;;8.40;99.90;;;;;;4982367;28;19926;-72
2023/03/13 01:24:19;;;;;;;;;;;8.50;99.90;;;;;;4986047;28;19926;-72
2023/03/13 01:26:45;;;;;;;;;;;8.50;99.90;;;;;;4982803;28;19977;-72
2023/03/13 01:29:11;;;;;;;;;;;8.70;99.90;;;;;;4983147;28;19926;-72
2023/03/13 01:31:36;;;;;;;;;;;8.50;99.90;;;;;;4982611;28;19984;-73
2023/03/13 01:34:03;;;;;;;;;;;9.10;99.90;;;;;;4984469;28;20028;-73
2023/03/13 01:36:29;;;;;;;;;;;10.00;99.90;;;;;;4981930;28;19926;-73
2023/03/13 01:38:56;;;;;;;;;;;9.10;99.90;;;;;;4984933;28;19926;-73
2023/03/13 01:41:22;;;;;;;;;;;8.70;99.90;;;;;;4981891;28;19926;-73
2023/03/13 01:43:47;;;;;;;;;;;9.10;99.90;;;;;;4978033;28;20413;-72
2023/03/13 01:46:17;;;;;;;;;;;9.10;99.90;;;;;;4985232;28;19929;-72
2023/03/13 01:48:52;;;;;;;;;;;8.60;99.90;;;;;;4981822;28;19934;-73
2023/03/13 01:51:17;;;;;;;;;;;8.60;99.90;;;;;;4978497;28;20362;-73
2023/03/13 01:53:45;;;;;;;;;;;9.00;99.90;;;;;;4984084;28;19972;-73
2023/03/13 01:56:13;;;;;;;;;;;9.10;99.90;;;;;;4982463;28;20279;-72
2023/03/13 01:58:39;;;;;;;;;;;9.20;99.90;;;;;;4981515;28;19929;-72
2023/03/13 02:01:05;;;;;;;;;;;9.00;99.90;;;;;;4984802;28;20385;-72
2023/03/13 02:03:34;;;;;;;;;;;9.40;99.90;;;;;;4984054;28;19929;-72
2023/03/13 02:06:00;;;;;;;;;;;8.80;99.90;;;;;;4982280;28;20378;-72
2023/03/13 02:08:30;;;;;;;;;;;8.90;99.90;;;;;;4984221;28;20089;-72
2023/03/13 02:11:19;;;;;;;;;;;9.00;99.90;;;;;;4983660;28;19930;-72
2023/03/13 02:13:46;;;;;;;;;;;8.90;99.90;;;;;;4970493;28;19933;-73
2023/03/13 02:16:12;;;;;;;;;;;8.80;99.90;;;;;;4978888;28;19981;-73
2023/03/13 02:18:37;;;;;;;;;;;8.80;99.90;;;;;;4984028;28;19926;-73
2023/03/13 02:21:10;;;;;;;;;;;8.80;99.90;;;;;;5014629;28;19940;-73
2023/03/13 02:23:39;;;;;;;;;;;8.80;99.90;;;;;;4983636;28;19981;-73
2023/03/13 02:26:05;;;;;;;;;;;9.30;99.90;;;;;;4982064;28;19969;-73
2023/03/13 02:28:32;;;;;;;;;;;9.20;99.90;;;;;;4983564;28;19927;-73
2023/03/13 02:30:58;;;;;;;;;;;9.50;99.90;;;;;;4982806;28;20012;-73
2023/03/13 02:33:33;;;;;;;;;;;8.90;99.90;;;;;;4982175;28;19981;-73
2023/03/13 02:36:00;;;;;;;;;;;8.80;99.90;;;;;;4981964;28;20366;-73
2023/03/13 02:38:30;;;;;;;;;;;9.80;99.90;;;;;;4980504;28;19932;-73
2023/03/13 02:40:56;;;;;;;;;;;8.90;99.90;;;;;;4983093;28;19976;-73
2023/03/13 02:43:26;;;;;;;;;;;8.90;99.90;;;;;;4983879;28;19933;-73
2023/03/13 02:46:06;;;;;;;;;;;8.90;99.90;;;;;;4982354;28;20370;-73
2023/03/13 02:48:33;;;;;;;;;;;9.00;99.90;;;;;;4983906;28;19926;-73
2023/03/13 02:51:00;;;;;;;;;;;9.30;99.90;;;;;;4982098;28;19933;-73
2023/03/13 02:53:25;;;;;;;;;;;9.30;99.90;;;;;;4983363;28;19922;-73
2023/03/13 02:55:51;;;;;;;;;;;9.10;99.90;;;;;;4982126;28;19926;-73
2023/03/13 02:58:17;;;;;;;;;;;9.10;99.90;;;;;;4981398;28;19926;-73
2023/03/13 03:00:42;;;;;;;;;;;9.20;99.90;;;;;;4983104;28;19933;-73
2023/03/13 03:03:08;;;;;;;;;;;9.10;99.90;;;;;;4979976;28;19933;-73
2023/03/13 03:05:33;;;;;;;;;;;9.60;99.90;;;;;;4984489;28;19930;-73
2023/03/13 03:07:59;;;;;;;;;;;9.40;99.90;;;;;;4981363;28;19957;-73
2023/03/13 03:10:24;;;;;;;;;;;10.20;99.90;;;;;;4982787;28;20477;-73
2023/03/13 03:12:50;;;;;;;;;;;9.20;99.90;;;;;;4980033;28;20370;-73
2023/03/13 03:15:15;;;;;;;;;;;9.30;99.90;;;;;;4983918;28;19931;-73
2023/03/13 03:17:41;;;;;;;;;;;9.30;99.90;;;;;;4981486;28;19926;-73
2023/03/13 03:20:10;;;;;;;;;;;9.60;99.90;;;;;;4985344;28;19929;-73
2023/03/13 03:22:37;;;;;;;;;;;9.30;99.90;;;;;;4985057;28;20408;-73
2023/03/13 03:25:05;;;;;;;;;;;9.90;99.90;;;;;;4980076;28;20005;-73
2023/03/13 03:27:30;;;;;;;;;;;9.30;99.90;;;;;;4981096;28;19929;-73
2023/03/13 03:29:56;;;;;;;;;;;9.40;99.90;;;;;;4984715;28;20289;-73
2023/03/13 03:32:22;;;;;;;;;;;9.30;99.90;;;;;;4981699;28;19975;-73
2023/03/13 03:34:47;;;;;;;;;;;9.40;99.90;;;;;;4980913;28;20428;-73
2023/03/13 03:37:13;;;;;;;;;;;9.40;99.90;;;;;;4980839;28;20317;-73
2023/03/13 03:39:38;;;;;;;;;;;9.40;99.90;;;;;;4983798;28;20480;-73
2023/03/13 03:42:04;;;;;;;;;;;9.30;99.90;;;;;;4981382;28;19926;-73
2023/03/13 03:44:29;;;;;;;;;;;9.40;99.90;;;;;;4978995;28;19926;-72
2023/03/13 03:46:55;;;;;;;;;;;9.30;99.90;;;;;;4983189;28;19965;-73
2023/03/13 03:49:20;;;;;;;;;;;9.30;99.90;;;;;;4980339;28;19929;-73
2023/03/13 03:51:47;;;;;;;;;;;9.70;99.90;;;;;;4981468;28;19985;-72
2023/03/13 03:54:12;;;;;;;;;;;9.50;99.90;;;;;;4981853;28;19926;-72
2023/03/13 03:56:38;;;;;;;;;;;9.50;99.90;;;;;;4982149;28;20436;-72
2023/03/13 03:59:03;;;;;;;;;;;9.90;99.90;;;;;;4982995;28;19929;-72
2023/03/13 04:01:29;;;;;;;;;;;9.60;99.90;;;;;;4978883;28;19926;-72
2023/03/13 04:03:54;;;;;;;;;;;9.50;99.90;;;;;;4977242;28;19930;-72
2023/03/13 04:06:20;;;;;;;;;;;9.50;99.90;;;;;;4983033;28;19922;-72
2023/03/13 04:08:46;;;;;;;;;;;9.40;99.90;;;;;;4980779;28;19926;-72
2023/03/13 04:11:11;;;;;;;;;;;9.40;99.90;;;;;;4981247;28;19927;-72
2023/03/13 04:13:37;;;;;;;;;;;9.50;99.90;;;;;;4980085;28;19933;-72
2023/03/13 04:16:06;;;;;;;;;;;9.70;99.90;;;;;;4982692;28;20281;-73
2023/03/13 04:18:31;;;;;;;;;;;9.80;99.90;;;;;;4981587;28;20396;-72
2023/03/13 04:21:01;;;;;;;;;;;9.80;99.90;;;;;;4979304;28;19926;-73
2023/03/13 04:23:26;;;;;;;;;;;9.80;99.90;;;;;;4979537;28;19974;-73
2023/03/13 04:25:52;;;;;;;;;;;9.90;99.90;;;;;;4981216;28;20011;-73
2023/03/13 04:28:17;;;;;;;;;;;10.50;99.90;;;;;;4981638;28;19933;-73
2023/03/13 04:30:43;;;;;;;;;;;10.30;99.90;;;;;;4981906;28;19929;-73
2023/03/13 04:33:08;;;;;;;;;;;10.00;99.90;;;;;;4984901;28;19930;-73
2023/03/13 04:35:34;;;;;;;;;;;10.30;99.90;;;;;;4984785;28;19930;-73
2023/03/13 04:38:01;;;;;;;;;;;10.10;99.90;;;;;;4986861;28;19926;-73
2023/03/13 04:40:29;;;;;;;;;;;9.80;99.90;;;;;;4986637;28;19926;-73
2023/03/13 04:42:57;;;;;;;;;;;10.30;99.90;;;;;;4985832;28;20201;-72
2023/03/13 04:45:22;;;;;;;;;;;10.10;99.90;;;;;;4984147;28;19926;-72
2023/03/13 04:47:48;;;;;;;;;;;10.30;99.90;;;;;;4985712;28;19980;-72
2023/03/13 04:50:13;;;;;;;;;;;10.20;99.90;;;;;;4984655;28;19937;-72
2023/03/13 04:52:39;;;;;;;;;;;10.20;99.90;;;;;;4984399;28;20397;-73
2023/03/13 04:55:04;;;;;;;;;;;10.20;99.90;;;;;;4985208;28;19930;-73
2023/03/13 04:57:30;;;;;;;;;;;10.20;99.90;;;;;;4986172;28;19929;-72
2023/03/13 04:59:55;;;;;;;;;;;10.20;99.90;;;;;;4984556;28;19926;-72
2023/03/13 05:02:21;;;;;;;;;;;10.20;99.90;;;;;;4986641;28;19933;-72
2023/03/13 05:04:47;;;;;;;;;;;10.30;99.90;;;;;;4982510;28;19929;-73
2023/03/13 05:07:12;;;;;;;;;;;10.50;99.90;;;;;;4985680;28;19932;-73
2023/03/13 05:09:38;;;;;;;;;;;10.20;99.90;;;;;;4982388;28;19934;-72
2023/03/13 05:12:12;;;;;;;;;;;10.20;99.90;;;;;;4984475;28;19937;-72
2023/03/13 05:14:41;;;;;;;;;;;10.10;99.90;;;;;;4984111;28;20832;-72
2023/03/13 05:17:06;;;;;;;;;;;10.90;99.90;;;;;;4983657;28;20390;-72
2023/03/13 05:19:32;;;;;;;;;;;10.30;99.90;;;;;;4984549;28;19937;-72
2023/03/13 05:21:57;;;;;;;;;;;10.30;99.90;;;;;;4985052;28;19933;-73
2023/03/13 05:24:23;;;;;;;;;;;10.40;99.90;;;;;;4983418;28;19933;-72
2023/03/13 05:26:48;;;;;;;;;;;10.40;99.90;;;;;;4983521;28;19926;-72
2023/03/13 05:29:14;;;;;;;;;;;11.40;99.90;;;;;;4986636;28;20013;-72
2023/03/13 05:31:39;;;;;;;;;;;10.70;99.90;;;;;;4982245;28;20017;-73
2023/03/13 05:34:05;;;;;;;;;;;10.60;99.90;;;;;;4986401;28;19976;-72
2023/03/13 05:36:30;;;;;;;;;;;10.80;99.90;;;;;;4984214;28;20271;-73
2023/03/13 05:38:56;;;;;;;;;;;11.10;99.90;;;;;;4983927;28;20009;-72
2023/03/13 05:41:21;;;;;;;;;;;11.00;99.90;;;;;;4980978;28;20377;-72
2023/03/13 05:43:47;;;;;;;;;;;10.40;99.90;;;;;;4982410;28;19926;-73
2023/03/13 05:46:12;;;;;;;;;;;10.70;99.90;;;;;;4983258;28;20029;-72
2023/03/13 05:48:38;;;;;;;;;;;10.90;99.90;;;;;;4984959;28;19956;-73
2023/03/13 05:51:03;;;;;;;;;;;10.50;99.90;;;;;;4981944;28;19936;-72
2023/03/13 05:53:29;;;;;;;;;;;10.40;99.90;;;;;;4982390;28;19991;-79
2023/03/13 05:55:54;;;;;;;;;;;10.40;99.90;;;;;;4983680;28;19933;-72
2023/03/13 05:58:20;;;;;;;;;;;10.50;99.90;;;;;;4983094;28;20430;-73
2023/03/13 06:00:45;;;;;;;;;;;10.60;99.90;;;;;;4982950;28;19973;-71
2023/03/13 06:03:11;;;;;;;;;;;10.60;99.90;;;;;;4983592;28;19926;-73
2023/03/13 06:05:36;;;;;;;;;;;10.60;99.90;;;;;;4980430;28;20306;-72
2023/03/13 06:08:02;;;;;;;;;;;11.70;99.90;;;;;;4981417;28;19926;-73
2023/03/13 06:10:28;;;;;;;;;;;10.70;99.90;;;;;;4983611;28;19934;-74
2023/03/13 06:12:54;;;;;;;;;;;10.60;99.90;;;;;;4981415;28;19930;-74
2023/03/13 06:15:20;;;;;;;;;;;10.70;99.90;;;;;;4983500;28;19926;-74
2023/03/13 06:17:45;;;;;;;;;;;10.60;99.90;;;;;;4983025;28;19926;-73
2023/03/13 06:20:11;;;;;;;;;;;10.70;99.90;;;;;;4983202;28;19929;-73
2023/03/13 06:22:37;;;;;;;;;;;10.80;99.90;;;;;;4982071;28;19926;-73
2023/03/13 06:25:03;;;;;;;;;;;10.90;99.90;;;;;;4985967;28;20362;-72
2023/03/13 06:27:31;;;;;;;;;;;10.70;99.90;;;;;;4975727;28;19926;-72
2023/03/13 06:29:57;;;;;;;;;;;10.70;99.90;;;;;;4981187;28;19981;-72
2023/03/13 06:32:22;;;;;;;;;;;11.10;99.90;;;;;;4983942;28;20506;-72
2023/03/13 06:34:48;;;;;;;;;;;10.80;99.90;;;;;;4982927;28;19926;-72
2023/03/13 06:37:13;;;;;;;;;;;10.90;99.90;;;;;;4983553;28;20025;-72
2023/03/13 06:39:39;;;;;;;;;;;11.30;99.90;;;;;;4983332;28;19929;-72
2023/03/13 06:42:05;;;;;;;;;;;10.90;99.90;;;;;;4976533;28;19926;-72
2023/03/13 06:44:30;;;;;;;;;;;11.00;99.90;;;;;;4985866;28;19932;-73
2023/03/13 06:46:56;;;;;;;;;;;11.00;99.90;;;;;;4981657;28;19926;-72
2023/03/13 06:49:21;;;;;;;;;;;11.00;99.90;;;;;;4984899;28;20057;-74
2023/03/13 06:51:47;;;;;;;;;;;11.60;99.90;;;;;;4983759;28;19988;-75
2023/03/13 06:54:13;;;;;;;;;;;11.10;99.90;;;;;;4985435;28;19980;-73
2023/03/13 06:56:38;;;;;;;;;;;11.00;99.90;;;;;;4982008;28;19930;-75
2023/03/13 06:59:04;;;;;;;;;;;11.30;99.90;;;;;;4984814;28;19930;-74
2023/03/13 07:01:29;;;;;;;;;;;11.20;99.90;;;;;;4982188;28;19969;-73
2023/03/13 07:03:55;;;;;;;;;;;11.10;99.90;;;;;;4982217;28;20017;-73
2023/03/13 07:06:20;;;;;;;;;;;11.00;99.90;;;;;;4984903;28;20017;-74
2023/03/13 07:08:47;;;;;;;;;;;11.00;99.90;;;;;;4981917;28;19926;-72
2023/03/13 07:11:15;;;;;;;;;;;11.00;99.90;;;;;;4983461;28;19933;-72
2023/03/13 07:13:41;;;;;;;;;;;11.10;99.90;;;;;;4979629;28;20367;-72
2023/03/13 07:16:08;;;;;;;;;;;11.10;99.90;;;;;;4980655;28;19933;-72
2023/03/13 07:18:37;;;;;;;;;;;11.00;99.90;;;;;;4982218;28;19926;-73
2023/03/13 07:21:06;;;;;;;;;;;11.10;99.90;;;;;;4982237;28;19953;-71
2023/03/13 07:23:32;;;;;;;;;;;11.10;99.90;;;;;;4981885;28;19926;-72
2023/03/13 07:25:59;;;;;;;;;;;10.90;99.90;;;;;;4980232;28;19965;-71
2023/03/13 07:28:25;;;;;;;;;;;11.00;99.90;;;;;;4980743;28;20025;-70
2023/03/13 07:30:50;;;;;;;;;;;11.10;99.90;;;;;;4977048;28;20025;-70
2023/03/13 07:33:16;;;;;;;;;;;11.10;99.90;;;;;;4983555;28;19936;-70
2023/03/13 07:35:51;;;;;;;;;;;11.10;99.90;;;;;;4982546;28;19926;-70
2023/03/13 07:38:18;;;;;;;;;;;11.10;99.90;;;;;;4982931;28;19925;-70
2023/03/13 07:40:48;;;;;;;;;;;11.20;99.90;;;;;;4985545;28;19949;-72
2023/03/13 07:43:13;;;;;;;;;;;11.30;99.90;;;;;;4978822;28;19981;-70
2023/03/13 07:45:48;;;;;;;;;;;11.20;99.90;;;;;;4979951;28;20047;-71
2023/03/13 07:48:13;;;;;;;;;;;11.20;99.90;;;;;;4983632;28;19930;-69
2023/03/13 07:50:39;;;;;;;;;;;11.20;99.90;;;;;;4983060;28;20367;-71
2023/03/13 07:53:04;;;;;;;;;;;11.30;99.90;;;;;;4980264;28;19922;-70
2023/03/13 07:55:30;;;;;;;;;;;11.30;99.90;;;;;;4982937;28;20013;-71
2023/03/13 07:57:55;;;;;;;;;;;11.30;99.90;;;;;;4984340;28;20013;-72
2023/03/13 08:00:21;;;;;;;;;;;11.60;99.90;;;;;;4979674;28;19926;-70
2023/03/13 08:02:47;;;;;;;;;;;11.50;99.90;;;;;;4980976;28;19933;-73
2023/03/13 08:05:12;;;;;;;;;;;11.80;99.90;;;;;;4983775;28;19921;-70
2023/03/13 08:07:38;;;;;;;;;;;12.00;99.90;;;;;;4983787;28;20700;-70
2023/03/13 08:10:04;;;;;;;;;;;12.30;99.90;;;;;;4987689;28;20024;-71
2023/03/13 08:12:29;;;;;;;;;;;12.80;99.90;;;;;;4984341;28;20298;-71
2023/03/13 08:14:55;;;;;;;;;;;13.20;99.90;;;;;;4986136;28;19925;-71
2023/03/13 08:17:21;;;;;;;;;;;13.20;99.90;;;;;;4984896;28;19926;-71
2023/03/13 08:19:46;;;;;;;;;;;13.60;99.90;;;;;;4983031;28;20396;-71
2023/03/13 08:22:12;;;;;;;;;;;14.20;99.90;;;;;;5018216;28;20021;-72
2023/03/13 08:24:37;;;;;;;;;;;14.30;99.90;;;;;;4985877;28;20731;-76
2023/03/13 08:27:03;;;;;;;;;;;14.60;99.90;;;;;;4985456;28;20334;-77
2023/03/13 08:29:29;;;;;;;;;;;15.10;99.90;;;;;;4986707;28;19933;-72
2023/03/13 08:31:54;;;;;;;;;;;15.40;99.90;;;;;;4987454;28;19929;-72
2023/03/13 08:34:20;;;;;;;;;;;15.70;99.90;;;;;;4983676;28;20374;-72
2023/03/13 08:36:46;;;;;;;;;;;15.80;99.90;;;;;;4988454;28;19926;-72
2023/03/13 08:39:13;;;;;;;;;;;16.40;99.90;;;;;;4985755;28;19930;-72
2023/03/13 08:41:41;;;;;;;;;;;16.70;99.90;;;;;;4980274;28;19933;-72
2023/03/13 08:44:09;;;;;;;;;;;16.60;99.90;;;;;;4983488;28;19926;-72
2023/03/13 08:46:35;;;;;;;;;;;16.90;99.90;;;;;;4986531;28;19937;-70
2023/03/13 08:49:01;;;;;;;;;;;17.30;99.90;;;;;;4983816;28;19926;-70
2023/03/13 08:51:27;;;;;;;;;;;17.30;99.90;;;;;;4985300;28;19996;-70
2023/03/13 08:53:54;;;;;;;;;;;17.50;99.90;;;;;;4984127;28;20325;-70
2023/03/13 08:56:21;;;;;;;;;;;17.10;99.90;;;;;;4981697;28;20386;-70
2023/03/13 08:58:50;;;;;;;;;;;16.60;99.90;;;;;;4985469;28;19965;-69
2023/03/13 09:01:16;;;;;;;;;;;15.80;99.90;;;;;;4982365;28;20329;-71
2023/03/13 09:03:42;;;;;;;;;;;14.40;99.90;;;;;;4984248;28;19981;-71
2023/03/13 09:06:08;;;;;;;;;;;14.00;99.90;;;;;;4986270;28;19933;-72
2023/03/13 09:08:34;;;;;;;;;;;13.30;99.90;;;;;;4977759;28;20374;-71
2023/03/13 09:11:04;;;;;;;;;;;13.40;99.90;;;;;;4986002;28;19933;-71
2023/03/13 09:13:31;;;;;;;;;;;13.00;99.90;;;;;;4983196;28;20429;-71
2023/03/13 09:15:58;;;;;;;;;;;12.80;99.90;;;;;;4983244;28;20397;-71
2023/03/13 09:18:24;;;;;;;;;;;12.70;99.90;;;;;;4985820;28;19926;-71
2023/03/13 09:20:50;;;;;;;;;;;12.50;99.90;;;;;;4985744;28;19933;-71
2023/03/13 09:23:15;;;;;;;;;;;12.30;99.90;;;;;;4983035;28;20429;-71
2023/03/13 09:25:41;;;;;;;;;;;12.30;99.90;;;;;;4982386;28;19933;-70
2023/03/13 09:28:06;;;;;;;;;;;12.20;99.90;;;;;;4984349;28;20407;-71
2023/03/13 09:30:32;;;;;;;;;;;12.40;99.90;;;;;;4977998;28;19926;-71
2023/03/13 09:33:00;;;;;;;;;;;12.40;99.90;;;;;;5009907;28;19941;-71
2023/03/13 09:35:29;;;;;;;;;;;12.30;99.90;;;;;;4977061;28;19930;-71
2023/03/13 09:37:54;;;;;;;;;;;12.70;99.90;;;;;;4975233;28;19973;-72
2023/03/13 09:40:21;;;;;;;;;;;13.00;99.90;;;;;;4973858;28;20370;-72
2023/03/13 09:42:51;;;;;;;;;;;13.90;99.90;;;;;;4975233;28;19981;-73
2023/03/13 09:45:34;;;;;;;;;;;15.00;99.90;;;;;;4974963;28;20342;-73
2023/03/13 09:48:19;;;;;;;;;;;15.80;99.90;;;;;;4973577;28;19926;-73
2023/03/13 09:50:52;;;;;;;;;;;16.70;99.90;;;;;;4972934;28;19993;-72
2023/03/13 09:53:23;;;;;;;;;;;17.00;99.90;;;;;;4975156;28;19977;-72
2023/03/13 09:55:48;;;;;;;;;;;17.50;99.90;;;;;;5006178;28;19926;-72
2023/03/13 09:58:16;;;;;;;;;;;17.40;99.90;;;;;;4972118;28;19925;-72
2023/03/13 10:00:45;;;;;;;;;;;17.70;99.90;;;;;;4976246;28;19980;-72
2023/03/13 10:03:19;;;;;;;;;;;17.90;99.90;;;;;;4977445;28;19926;-71
2023/03/13 10:05:49;;;;;;;;;;;18.10;99.90;;;;;;4979270;28;19936;-71
2023/03/13 10:08:16;;;;;;;;;;;18.00;99.90;;;;;;4983642;28;19930;-72
2023/03/13 10:10:47;;;;;;;;;;;17.30;99.90;;;;;;4982471;28;19961;-72
2023/03/13 10:13:36;;;;;;;;;;;16.20;99.90;;;;;;4985553;28;19933;-72
2023/03/13 10:16:08;;;;;;;;;;;15.70;99.90;;;;;;4976171;28;20299;-73
2023/03/13 10:18:35;;;;;;;;;;;16.10;99.90;;;;;;4981126;28;20009;-73
2023/03/13 10:21:04;;;;;;;;;;;17.10;99.90;;;;;;4981876;28;19957;-73
2023/03/13 10:23:38;;;;;;;;;;;17.60;99.90;;;;;;4982840;28;19926;-73
2023/03/13 10:26:04;;;;;;;;;;;20.20;99.90;;;;;;4982881;28;20371;-73
2023/03/13 10:28:29;;;;;;;;;;;18.50;99.90;;;;;;4981223;28;19989;-72
2023/03/13 10:31:18;;;;;;;;;;;19.00;99.90;;;;;;4984504;28;20417;-73
2023/03/13 10:33:43;;;;;;;;;;;19.10;99.90;;;;;;4973009;28;20275;-73
2023/03/13 10:36:10;;;;;;;;;;;19.30;99.90;;;;;;4982985;28;19926;-72
2023/03/13 10:38:47;;;;;;;;;;;19.60;99.90;;;;;;4986974;28;19926;-74
2023/03/13 10:41:18;;;;;;;;;;;19.50;99.60;;;;;;4982775;28;19926;-72
2023/03/13 10:43:51;;;;;;;;;;;19.50;98.60;;;;;;4981642;28;19938;-73
2023/03/13 10:46:23;;;;;;;;;;;19.60;98.80;;;;;;4982840;28;19984;-74
2023/03/13 10:48:48;;;;;;;;;;;19.80;97.70;;;;;;4978597;28;19926;-74
2023/03/13 10:51:21;;;;;;;;;;;19.70;97.70;;;;;;4985083;28;19936;-74
2023/03/13 10:53:47;;;;;;;;;;;19.50;98.10;;;;;;4976238;28;19921;-73
2023/03/13 10:56:14;;;;;;;;;;;21.80;99.10;;;;;;4983970;28;19927;-73
2023/03/13 10:58:39;;;;;;;;;;;19.60;98.70;;;;;;4983847;28;19972;-73
2023/03/13 11:01:16;;;;;;;;;;;19.80;98.40;;;;;;4984144;28;19930;-73
2023/03/13 11:03:42;;;;;;;;;;;19.40;98.70;;;;;;4980373;28;20043;-72
2023/03/13 11:06:22;;;;;;;;;;;18.30;99.20;;;;;;4980645;28;20034;-73
2023/03/13 11:08:58;;;;;;;;;;;18.10;99.00;;;;;;4976125;28;20412;-72
2023/03/13 11:11:29;;;;;;;;;;;17.40;99.90;;;;;;4984082;28;19926;-71
2023/03/13 11:14:06;;;;;;;;;;;16.90;99.90;;;;;;4982557;28;20288;-72
2023/03/13 11:16:34;;;;;;;;;;;16.90;99.90;;;;;;4977474;28;20013;-72
2023/03/13 11:56:49;;;;;;;14.75;3.67;;;15.70;99.90;;;;;;5172465;27;20125;-71
2023/03/13 11:59:39;;;;;;;20.48;3.85;;;15.10;99.90;;;;;;5151286;27;20049;-69
2023/03/13 12:02:25;;;;;;;16.48;4.38;;;15.00;99.90;;;;;;5138127;27;20505;-71
2023/03/13 12:04:58;;;;;;;15.35;4.05;;;14.70;99.90;;;;;;5137995;27;20043;-70
2023/03/13 12:07:35;;;;;;;14.90;3.60;;;14.50;99.90;;;;;;5145918;27;20107;-70
2023/03/13 12:10:09;;;;;;;18.58;4.35;;;14.60;99.90;;;;;;5138975;27;20041;-70
2023/03/13 12:12:34;;;;;;;16.48;3.08;;;14.70;99.90;;;;;;5130382;27;20126;-71
2023/03/13 12:15:20;;;;;;;13.57;3.83;;;15.30;99.90;;;;;;5111366;28;20199;-71
2023/03/13 12:17:50;;;;;;;14.50;3.40;;;16.10;99.90;;;;;;5143711;27;20075;-70
2023/03/13 12:20:52;;;;;;;19.05;3.75;;;16.70;99.90;;;;;;5116738;27;20043;-71
2023/03/13 12:23:22;;;;;;;19.38;4.25;;;17.30;99.90;;;;;;5063440;28;20078;-72
2023/03/13 12:25:57;;;;;;;18.65;4.43;;;17.60;99.90;;;;;;5118891;27;20130;-73
2023/03/13 12:28:23;;;;;;;12.77;3.25;;;17.40;99.90;;;;;;5125082;28;20043;-71
2023/03/13 12:31:12;;;;;;;14.50;3.38;;;17.40;99.90;;;;;;5129883;28;20078;-69
2023/03/13 12:34:15;;;;;;;19.92;4.15;;;17.70;99.90;;;;;;5129944;27;20047;-69
2023/03/13 12:36:43;;;;;;;16.98;3.38;;;17.60;99.90;;;;;;5131306;27;20783;-69
2023/03/13 12:39:30;;;;;;;16.13;4.13;;;17.70;99.90;;;;;;5130182;27;20075;-68
2023/03/13 12:42:08;;;;;;;14.20;3.25;;;17.30;99.90;;;;;;5127080;27;20093;-70
2023/03/13 12:44:34;;;;;;;15.80;3.63;;;17.30;99.90;;;;;;5128527;27;20047;-71
2023/03/13 12:47:32;;;;;;;19.02;3.78;;;17.50;99.90;;;;;;5129860;27;20040;-72
2023/03/13 12:50:19;;;;;;;17.98;3.95;;;17.40;99.90;;;;;;5124174;27;20051;-75
2023/03/13 12:53:10;;;;;;;20.92;3.40;;;17.70;99.90;;;;;;5111716;28;20398;-74
2023/03/13 12:56:03;;;;;;;19.98;3.83;;;17.70;99.70;;;;;;5140991;27;20047;-73
2023/03/13 12:58:36;;;;;;;15.80;3.45;;;17.50;99.90;;;;;;5135711;27;20117;-73
2023/03/13 13:01:05;;;;;;;15.48;3.25;;;17.50;99.90;;;;;;5118080;27;20479;-73
2023/03/13 13:03:44;;;;;;;14.30;3.58;;;17.50;99.90;;;;;;5116939;27;20172;-78
2023/03/13 13:06:15;;;;;;;17.27;3.65;;;17.60;99.90;;;;;;5118016;27;20054;-72
2023/03/13 13:08:51;;;;;;;19.42;3.45;;;17.50;99.90;;;;;;5110909;28;20048;-72
2023/03/13 13:11:35;;;;;;;13.38;3.83;;;17.00;99.90;;;;;;5096873;28;20056;-73
2023/03/13 13:14:15;;;;;;;16.67;3.35;;;16.70;99.90;;;;;;5115643;28;20055;-72
2023/03/13 13:17:15;;;;;;;19.23;3.80;;;16.60;99.90;;;;;;5129742;27;20043;-73
2023/03/13 13:19:40;;;;;;;20.08;4.10;;;16.30;99.90;;;;;;5113943;27;20047;-72
2023/03/13 13:22:32;;;;;;;16.42;3.92;;;16.00;99.90;;;;;;5130673;27;20042;-72
2023/03/13 13:24:59;;;;;;;18.70;4.25;;;16.00;99.90;;;;;;5127643;27;20043;-73
2023/03/13 13:27:31;;;;;;;13.52;4.25;;;15.90;99.90;;;;;;5115584;27;20133;-74
2023/03/13 13:29:58;;;;;;;15.75;3.65;;;15.80;99.90;;;;;;5135567;27;20485;-73
2023/03/13 13:32:31;;;;;;;16.35;4.55;;;15.80;99.90;;;;;;5134835;27;20092;-73
2023/03/13 13:35:05;;;;;;;17.73;4.65;;;15.80;99.90;;;;;;5117235;27;20068;-73
2023/03/13 13:37:31;;;;;;;18.05;3.83;;;15.50;99.90;;;;;;5135291;27;20066;-73
2023/03/13 13:40:22;;;;;;;24.05;3.97;;;15.40;99.90;;;;;;5135075;27;20067;-73
2023/03/13 13:42:58;;;;;;;14.57;3.53;;;15.40;99.90;;;;;;5117593;27;20043;-72
2023/03/13 13:45:34;;;;;;;14.73;3.45;;;15.60;99.90;;;;;;5135197;27;20100;-72
2023/03/13 13:48:27;;;;;;;18.15;3.97;;;15.30;99.90;;;;;;5115479;27;20066;-72
2023/03/13 13:51:22;;;;;;;18.13;4.47;;;15.30;99.90;;;;;;5125512;27;20036;-73
2023/03/13 13:53:54;;;;;;;13.85;3.90;;;15.20;99.90;;;;;;5093173;28;20478;-73
2023/03/13 13:56:36;;;;;;;18.00;3.70;;;15.20;99.90;;;;;;5114583;28;20039;-73
2023/03/13 13:59:25;;;;;;;19.95;4.65;;;15.10;99.90;;;;;;5096990;28;20032;-73
2023/03/13 14:02:06;;;;;;;20.13;4.00;;;15.20;99.90;;;;;;5082201;28;20429;-72
2023/03/13 14:04:49;;;;;;;23.67;4.20;;;15.00;99.90;;;;;;5096479;28;20036;-72
2023/03/13 14:07:39;;;;;;;16.45;3.85;;;14.90;99.90;;;;;;5113755;28;20051;-72
2023/03/13 14:10:11;;;;;;;17.50;3.97;;;15.00;99.90;;;;;;5096397;28;20040;-72
2023/03/13 14:12:38;;;;;;;21.17;4.07;;;14.70;99.90;;;;;;5095743;28;20047;-72
2023/03/13 14:15:18;;;;;;;21.92;4.72;;;14.80;99.90;;;;;;5113761;28;20042;-71
2023/03/13 14:17:49;;;;;;;21.00;4.15;;;14.60;99.90;;;;;;5114638;28;20048;-72
2023/03/13 14:20:21;;;;;;;21.10;4.40;;;14.70;99.90;;;;;;5096907;28;20410;-72
2023/03/13 14:22:48;;;;;;;17.60;4.07;;;14.80;99.90;;;;;;5113766;28;20039;-71
2023/03/13 14:25:14;;;;;;;20.63;4.70;;;14.70;99.90;;;;;;5113229;28;20039;-72
2023/03/13 14:27:44;;;;;;;16.58;3.80;;;14.40;99.90;;;;;;5111744;28;20043;-72
2023/03/13 14:30:11;;;;;;;15.48;4.82;;;14.40;99.90;;;;;;5097792;28;20054;-72
2023/03/13 14:32:38;;;;;;;25.98;4.80;;;14.40;99.90;;;;;;5111805;28;20039;-72
2023/03/13 14:35:05;;;;;;;22.35;4.22;;;14.40;99.90;;;;;;5092863;28;20047;-72
2023/03/13 14:37:34;;;;;;;15.60;4.00;;;14.40;99.90;;;;;;5111394;28;20458;-72
2023/03/13 14:40:18;;;;;;;24.05;4.32;;;14.10;99.90;;;;;;5094133;28;20433;-72
2023/03/13 14:42:50;;;;;;;18.35;4.55;;;14.00;99.90;;;;;;5113466;28;20073;-72
2023/03/13 14:45:35;;;;;;;19.15;4.20;;;14.20;99.90;;;;;;5095642;28;20043;-72
2023/03/13 14:48:19;;;;;;;22.92;4.55;;;14.00;99.90;;;;;;5095407;28;20052;-71